Time;durP1;ratioP1;P1;durP2;ratioP2;P2;SDS_P1;SDS_P2;PMS_P1;PMS_P2;Temp;Humidity;BMP_temperature;BMP_pressure;BME280_temperature;BME280_humidity;BME280_pressure;Samples;Min_cycle;Max_cycle;Signal;HPM_P1;HPM_P2
2023/07/19 00:00:15;;;;;;;6.65;3.60;;;;;;;17.46;61.72;100778.13;685155;28;1320;-80
2023/07/19 00:00:35;;;;;;;6.53;3.60;;;;;;;17.55;61.75;100801.84;687937;28;1038;-80
2023/07/19 00:00:56;;;;;;;5.82;3.72;;;;;;;17.56;61.66;100797.47;685459;28;1243;-80
2023/07/19 00:01:17;;;;;;;6.37;4.00;;;;;;;17.58;61.47;100795.69;679812;28;1063;-80
2023/07/19 00:01:37;;;;;;;5.93;4.00;;;;;;;17.57;61.47;100796.56;679888;29;1106;-80
2023/07/19 00:01:58;;;;;;;6.20;4.20;;;;;;;17.58;61.29;100800.97;688102;28;1113;-80
2023/07/19 00:02:19;;;;;;;6.50;4.37;;;;;;;17.57;61.25;100793.94;687887;28;1048;-80
2023/07/19 00:02:39;;;;;;;6.68;4.07;;;;;;;17.56;61.32;100792.19;690460;28;1159;-79
2023/07/19 00:03:00;;;;;;;6.90;4.00;;;;;;;17.57;61.14;100788.66;687789;28;1344;-79
2023/07/19 00:03:21;;;;;;;8.17;4.40;;;;;;;17.58;61.14;100788.63;685059;28;1281;-80
2023/07/19 00:03:42;;;;;;;7.70;4.50;;;;;;;17.63;61.16;100797.44;677291;29;995;-80
2023/07/19 00:04:03;;;;;;;8.65;4.32;;;;;;;17.56;61.28;100787.78;685134;28;1359;-80
2023/07/19 00:04:24;;;;;;;7.75;3.95;;;;;;;17.56;61.32;100782.50;682531;28;1257;-79
2023/07/19 00:04:45;;;;;;;8.40;4.10;;;;;;;17.62;61.38;100782.50;679959;29;1002;-80
2023/07/19 00:05:07;;;;;;;6.40;4.20;;;;;;;17.57;61.25;100778.09;684353;28;1071;-80
2023/07/19 00:05:28;;;;;;;8.43;4.50;;;;;;;17.60;61.51;100788.66;684962;28;1120;-80
2023/07/19 00:05:49;;;;;;;8.20;4.50;;;;;;;17.60;61.61;100788.66;684580;28;939;-79
2023/07/19 00:06:10;;;;;;;8.50;4.45;;;;;;;17.52;61.40;100776.34;687901;28;1041;-80
2023/07/19 00:06:30;;;;;;;6.93;4.07;;;;;;;17.50;61.31;100772.81;687867;28;984;-79
2023/07/19 00:06:51;;;;;;;7.03;3.85;;;;;;;17.51;61.28;100779.84;679994;29;1090;-81
2023/07/19 00:07:12;;;;;;;7.57;4.10;;;;;;;17.52;61.51;100781.63;687732;28;1418;-80
2023/07/19 00:07:33;;;;;;;7.10;4.10;;;;;;;17.54;61.21;100790.41;687913;28;1049;-79
2023/07/19 00:07:53;;;;;;;6.17;4.00;;;;;;;17.50;61.29;100786.03;687865;28;956;-80
2023/07/19 00:08:14;;;;;;;5.50;3.70;;;;;;;17.50;61.41;100793.94;679901;29;1025;-80
2023/07/19 00:08:35;;;;;;;5.47;3.78;;;;;;;17.39;61.34;100775.47;687005;28;1285;-80
2023/07/19 00:08:56;;;;;;;5.80;3.65;;;;;;;17.39;61.45;100782.50;685440;28;807;-80
2023/07/19 00:09:17;;;;;;;6.57;3.87;;;;;;;17.34;61.45;100781.63;677120;29;1277;-80
2023/07/19 00:09:38;;;;;;;6.43;3.85;;;;;;;17.36;61.38;100788.66;679759;29;1069;-80
2023/07/19 00:09:58;;;;;;;6.40;4.00;;;;;;;17.40;61.58;100797.47;682468;29;1206;-80
2023/07/19 00:10:19;;;;;;;6.40;3.90;;;;;;;17.31;61.74;100779.88;682071;29;1259;-79
2023/07/19 00:10:40;;;;;;;6.30;4.00;;;;;;;17.31;61.50;100782.50;687905;28;1187;-79
2023/07/19 00:11:01;;;;;;;6.03;3.90;;;;;;;17.33;61.63;100779.88;690491;28;1169;-79
2023/07/19 00:11:22;;;;;;;5.10;3.70;;;;;;;17.34;61.75;100797.47;684994;28;1273;-81
2023/07/19 00:11:43;;;;;;;5.00;3.60;;;;;;;17.30;61.75;100779.84;690615;28;1313;-80
2023/07/19 00:12:06;;;;;;;5.70;3.78;;;;;;;17.29;61.72;100792.19;687401;28;1399;-80
2023/07/19 00:12:26;;;;;;;6.20;3.90;;;;;;;17.29;61.83;100776.34;690494;28;1093;-80
2023/07/19 00:12:47;;;;;;;6.70;3.97;;;;;;;17.31;61.92;100786.88;685025;28;1325;-80
2023/07/19 00:13:08;;;;;;;6.15;3.88;;;;;;;17.37;61.74;100797.44;688177;28;1908;-80
2023/07/19 00:13:28;;;;;;;5.60;3.83;;;;;;;17.34;61.95;100793.03;690475;28;972;-80
2023/07/19 00:13:49;;;;;;;5.38;3.58;;;;;;;17.31;61.92;100781.63;687724;28;1083;-79
2023/07/19 00:14:10;;;;;;;6.53;3.78;;;;;;;17.40;61.89;100802.75;682965;28;1292;-79
2023/07/19 00:14:31;;;;;;;8.03;3.80;;;;;;;17.30;61.79;100780.75;687612;28;1086;-80
2023/07/19 00:14:52;;;;;;;7.05;3.70;;;;;;;17.37;61.86;100795.69;687843;28;1024;-80
2023/07/19 00:15:12;;;;;;;7.75;3.58;;;;;;;17.34;61.63;100781.63;687898;28;1121;-79
2023/07/19 00:15:33;;;;;;;7.50;3.60;;;;;;;17.38;61.67;100796.56;687368;28;1228;-79
2023/07/19 00:15:54;;;;;;;8.07;3.72;;;;;;;17.43;61.75;100789.53;682577;28;1388;-80
2023/07/19 00:16:15;;;;;;;7.37;3.97;;;;;;;17.42;61.52;100785.16;682453;28;1262;-80
2023/07/19 00:16:36;;;;;;;6.55;3.90;;;;;;;17.47;61.59;100793.94;687600;28;1314;-80
2023/07/19 00:16:56;;;;;;;7.30;4.00;;;;;;;17.52;61.54;100793.94;687277;28;806;-80
2023/07/19 00:17:17;;;;;;;6.63;4.05;;;;;;;17.49;61.71;100784.25;685107;28;1169;-80
2023/07/19 00:17:38;;;;;;;7.30;4.13;;;;;;;17.52;61.76;100786.88;684886;28;1263;-79
2023/07/19 00:17:58;;;;;;;6.78;4.05;;;;;;;17.59;61.49;100800.97;687959;28;1104;-79
2023/07/19 00:18:19;;;;;;;7.38;4.10;;;;;;;17.62;61.73;100794.78;685030;28;1171;-80
2023/07/19 00:18:40;;;;;;;8.00;4.20;;;;;;;17.63;61.46;100791.28;687925;28;890;-79
2023/07/19 00:19:01;;;;;;;7.73;4.40;;;;;;;17.59;61.53;100781.63;685138;28;1169;-80
2023/07/19 00:19:22;;;;;;;6.80;4.30;;;;;;;17.62;61.57;100779.84;685168;28;1255;-80
2023/07/19 00:19:43;;;;;;;5.10;3.90;;;;;;;17.68;61.44;100794.78;682421;28;1097;-80
2023/07/19 00:20:04;;;;;;;4.80;3.77;;;;;;;17.64;61.20;100785.13;682462;28;1258;-80
2023/07/19 00:20:25;;;;;;;6.65;4.10;;;;;;;17.71;60.97;100802.72;679831;29;1056;-80
2023/07/19 00:20:46;;;;;;;7.30;4.15;;;;;;;17.67;61.02;100790.41;685113;28;1193;-80
2023/07/19 00:21:06;;;;;;;7.43;4.10;;;;;;;17.72;60.70;100788.66;684990;28;1151;-80
2023/07/19 00:21:27;;;;;;;5.68;3.60;;;;;;;17.66;60.74;100778.94;682283;29;1150;-80
2023/07/19 00:21:48;;;;;;;5.78;3.70;;;;;;;17.73;60.72;100790.41;682531;29;1165;-80
2023/07/19 00:22:09;;;;;;;6.32;4.00;;;;;;;17.75;60.64;100786.00;682341;29;1300;-80
2023/07/19 00:22:31;;;;;;;6.95;4.28;;;;;;;17.74;60.56;100786.88;679803;29;1109;-80
2023/07/19 00:22:52;;;;;;;6.38;4.20;;;;;;;17.72;60.58;100788.66;680405;29;904;-80
2023/07/19 00:23:12;;;;;;;5.90;3.90;;;;;;;17.72;60.64;100778.09;685047;28;1260;-80
2023/07/19 00:23:33;;;;;;;5.88;3.97;;;;;;;17.76;60.68;100790.38;684983;28;943;-79
2023/07/19 00:23:53;;;;;;;6.10;3.70;;;;;;;17.71;60.42;100776.34;685224;28;1109;-80
2023/07/19 00:24:14;;;;;;;7.53;3.50;;;;;;;17.70;60.52;100773.69;679737;29;1163;-80
2023/07/19 00:24:35;;;;;;;6.80;3.20;;;;;;;17.78;60.57;100787.75;677329;29;1156;-79
2023/07/19 00:24:56;;;;;;;6.53;3.53;;;;;;;17.76;60.75;100785.09;677519;29;815;-80
2023/07/19 00:25:17;;;;;;;4.60;3.67;;;;;;;17.77;60.47;100792.13;677286;29;1110;-80
2023/07/19 00:25:37;;;;;;;5.80;4.00;;;;;;;17.72;60.33;100777.19;679304;29;1314;-79
2023/07/19 00:25:58;;;;;;;6.40;4.00;;;;;;;17.71;60.30;100781.63;682465;28;1041;-79
2023/07/19 00:26:19;;;;;;;7.43;3.88;;;;;;;17.71;60.29;100784.25;687943;28;994;-80
2023/07/19 00:26:40;;;;;;;6.90;3.67;;;;;;;17.72;60.31;100783.38;687725;28;1382;-79
2023/07/19 00:27:20;;;;;;;6.72;3.60;;;;;;;17.78;60.30;100793.88;685213;28;1072;-79
2023/07/19 00:27:41;;;;;;;6.45;3.80;;;;;;;17.72;60.36;100775.44;687811;28;1094;-80
2023/07/19 00:28:01;;;;;;;6.60;3.85;;;;;;;17.75;60.33;100788.63;687788;28;1126;-79
2023/07/19 00:28:22;;;;;;;5.60;3.90;;;;;;;17.73;60.25;100784.22;682427;28;1045;-79
2023/07/19 00:28:43;;;;;;;5.18;3.80;;;;;;;17.71;60.41;100770.16;684218;28;1165;-80
2023/07/19 00:29:04;;;;;;;4.77;3.77;;;;;;;17.77;60.23;100786.00;690312;28;1096;-79
2023/07/19 00:29:24;;;;;;;6.07;3.80;;;;;;;17.70;60.15;100771.91;690431;28;1064;-80
2023/07/19 00:29:45;;;;;;;8.00;4.00;;;;;;;17.76;60.16;100779.81;687867;28;887;-80
2023/07/19 00:30:06;;;;;;;8.65;3.90;;;;;;;17.82;60.24;100789.47;687736;28;1004;-81
2023/07/19 00:30:27;;;;;;;7.90;3.95;;;;;;;17.75;60.27;100772.78;690299;28;1365;-80
2023/07/19 00:30:48;;;;;;;6.45;3.80;;;;;;;17.82;60.33;100781.56;690345;28;1291;-80
2023/07/19 00:31:08;;;;;;;5.80;3.85;;;;;;;17.77;60.30;100773.66;685131;28;1112;-80
2023/07/19 00:31:29;;;;;;;5.95;3.95;;;;;;;17.87;60.10;100786.84;684796;28;1382;-78
2023/07/19 00:31:49;;;;;;;6.20;3.90;;;;;;;17.80;60.21;100775.41;682841;28;1056;-79
2023/07/19 00:32:10;;;;;;;5.82;3.63;;;;;;;17.85;60.13;100784.22;682496;29;1109;-79
2023/07/19 00:32:33;;;;;;;4.90;3.22;;;;;;;17.78;59.73;100778.06;684914;28;1336;-80
2023/07/19 00:32:54;;;;;;;4.90;3.30;;;;;;;17.80;59.98;100776.31;684933;28;1257;-80
2023/07/19 00:33:15;;;;;;;5.25;3.50;;;;;;;17.76;60.05;100769.25;677139;29;1971;-79
2023/07/19 00:33:35;;;;;;;5.20;3.37;;;;;;;17.77;59.84;100773.66;682362;29;1250;-80
2023/07/19 00:33:56;;;;;;;5.15;3.30;;;;;;;17.78;59.75;100783.34;682752;29;872;-80
2023/07/19 00:34:17;;;;;;;7.15;3.38;;;;;;;17.84;59.71;100782.47;682414;29;1162;-80
2023/07/19 00:34:37;;;;;;;7.57;3.67;;;;;;;17.79;59.74;100785.13;686998;28;1273;-79
2023/07/19 00:34:58;;;;;;;7.25;3.78;;;;;;;17.80;59.72;100775.41;682424;28;1226;-80
2023/07/19 00:35:19;;;;;;;6.32;4.10;;;;;;;17.86;59.64;100785.97;679881;28;1303;-80
2023/07/19 00:35:41;;;;;;;5.97;3.90;;;;;;;17.76;59.65;100768.41;687173;28;1527;-79
2023/07/19 00:36:02;;;;;;;6.28;3.80;;;;;;;17.86;59.54;100796.53;685303;28;1455;-80
2023/07/19 00:36:23;;;;;;;5.22;3.53;;;;;;;17.76;59.64;100774.53;685028;28;1070;-80
2023/07/19 00:36:44;;;;;;;6.15;3.67;;;;;;;17.73;59.64;100774.56;685052;28;1159;-79
2023/07/19 00:37:05;;;;;;;5.87;3.70;;;;;;;17.78;59.68;100772.78;685243;28;1219;-80
2023/07/19 00:37:27;;;;;;;5.53;3.67;;;;;;;17.77;59.77;100781.56;687704;28;1115;-81
2023/07/19 00:37:48;;;;;;;5.50;3.53;;;;;;;17.84;59.69;100782.47;685262;28;974;-81
2023/07/19 00:38:09;;;;;;;5.47;3.45;;;;;;;17.81;60.04;100774.53;690364;28;1290;-80
2023/07/19 00:38:29;;;;;;;5.45;3.60;;;;;;;17.81;60.13;100778.06;687732;28;971;-80
2023/07/19 00:38:50;;;;;;;5.07;3.40;;;;;;;17.77;60.20;100771.03;690083;28;1137;-80
2023/07/19 00:39:12;;;;;;;6.80;3.75;;;;;;;17.79;60.27;100769.28;692184;28;1003;-80
2023/07/19 00:39:32;;;;;;;7.20;3.70;;;;;;;17.89;60.30;100785.09;682420;29;1108;-81
2023/07/19 00:39:53;;;;;;;7.35;3.90;;;;;;;17.87;60.25;100777.16;682475;28;1068;-80
2023/07/19 00:40:14;;;;;;;5.70;3.60;;;;;;;17.87;60.05;100782.44;685036;28;1092;-80
2023/07/19 00:40:35;;;;;;;5.30;3.60;;;;;;;17.87;60.14;100781.56;690224;28;1330;-80
2023/07/19 00:40:57;;;;;;;5.68;3.58;;;;;;;17.76;60.07;100764.00;682430;28;1295;-80
2023/07/19 00:41:18;;;;;;;5.57;3.60;;;;;;;17.85;59.98;100781.59;687685;28;1182;-80
2023/07/19 00:41:39;;;;;;;5.72;3.72;;;;;;;17.77;60.13;100767.53;685568;28;1180;-80
2023/07/19 00:42:01;;;;;;;5.10;3.47;;;;;;;17.81;59.93;100772.78;682463;29;1143;-79
2023/07/19 00:42:21;;;;;;;7.22;3.63;;;;;;;17.87;60.14;100782.44;682316;29;1094;-80
2023/07/19 00:42:42;;;;;;;8.07;3.75;;;;;;;17.78;59.99;100772.78;679735;29;1228;-80
2023/07/19 00:43:09;;;;;;;9.52;4.30;;;;;;;17.80;60.17;100776.31;679697;29;1162;-80
2023/07/19 00:43:31;;;;;;;9.20;4.60;;;;;;;17.77;60.12;100770.16;682276;29;1243;-80
2023/07/19 00:43:51;;;;;;;7.13;4.30;;;;;;;17.81;60.15;100783.34;682565;28;950;-80
2023/07/19 00:44:12;;;;;;;6.30;4.03;;;;;;;17.73;60.36;100769.28;682529;28;1370;-80
2023/07/19 00:44:33;;;;;;;5.27;3.80;;;;;;;17.78;60.50;100774.56;685129;28;1144;-80
2023/07/19 00:44:54;;;;;;;5.00;3.70;;;;;;;17.69;60.55;100767.53;685230;28;1112;-80
2023/07/19 00:45:14;;;;;;;5.47;3.70;;;;;;;17.68;60.45;100765.75;685010;28;1175;-80
2023/07/19 00:45:41;;;;;;;5.55;3.58;;;;;;;17.68;60.40;100777.22;687618;28;1262;-80
2023/07/19 00:46:02;;;;;;;5.65;3.60;;;;;;;17.67;60.47;100769.28;682425;29;1112;-80
2023/07/19 00:46:23;;;;;;;5.55;3.42;;;;;;;17.68;60.80;100781.59;682217;28;1061;-80
2023/07/19 00:46:44;;;;;;;6.03;3.70;;;;;;;17.62;60.57;100777.22;685092;28;928;-80
2023/07/19 00:47:05;;;;;;;5.80;3.75;;;;;;;17.58;60.67;100769.31;682316;28;1047;-80
2023/07/19 00:47:26;;;;;;;6.35;4.00;;;;;;;17.66;60.90;100788.66;682287;28;1318;-80
2023/07/19 00:47:48;;;;;;;6.82;3.90;;;;;;;17.65;61.11;100781.63;679769;29;1317;-80
2023/07/19 00:48:09;;;;;;;6.35;3.72;;;;;;;17.56;60.78;100763.16;679664;29;993;-80
2023/07/19 00:48:30;;;;;;;6.10;3.90;;;;;;;17.63;61.01;100778.06;679548;29;1333;-80
2023/07/19 00:48:51;;;;;;;6.07;4.05;;;;;;;17.63;61.11;100773.69;685025;28;1294;-80
2023/07/19 00:49:12;;;;;;;6.45;4.18;;;;;;;17.60;61.05;100771.06;682172;28;1406;-80
2023/07/19 00:49:33;;;;;;;5.38;3.90;;;;;;;17.66;61.56;100783.38;685012;28;1198;-80
2023/07/19 00:49:54;;;;;;;5.80;3.80;;;;;;;17.66;61.53;100775.44;679868;29;1105;-80
2023/07/19 00:50:15;;;;;;;6.10;3.60;;;;;;;17.58;61.29;100764.03;685992;28;1379;-80
2023/07/19 00:50:36;;;;;;;6.38;3.55;;;;;;;17.58;61.56;100766.66;687526;28;1161;-80
2023/07/19 00:50:58;;;;;;;6.05;3.50;;;;;;;17.66;61.35;100780.72;682803;28;1148;-80
2023/07/19 00:51:19;;;;;;;5.85;3.60;;;;;;;17.64;61.41;100774.59;687754;28;1124;-80
2023/07/19 00:51:40;;;;;;;5.88;3.90;;;;;;;17.63;61.48;100773.69;690402;28;1207;-80
2023/07/19 00:52:02;;;;;;;5.85;4.30;;;;;;;17.63;61.02;100773.69;682448;28;1171;-80
2023/07/19 00:52:23;;;;;;;7.55;4.25;;;;;;;17.58;61.54;100769.31;682404;28;1267;-80
2023/07/19 00:52:44;;;;;;;7.50;4.05;;;;;;;17.63;61.51;100772.78;687731;28;1155;-80
2023/07/19 00:53:05;;;;;;;7.90;4.00;;;;;;;17.62;61.85;100776.31;687729;28;1965;-80
2023/07/19 00:53:26;;;;;;;7.25;3.92;;;;;;;17.51;61.76;100760.50;685566;28;1344;-80
2023/07/19 00:53:48;;;;;;;7.07;4.00;;;;;;;17.46;61.78;100760.50;679936;29;887;-80
2023/07/19 00:54:09;;;;;;;6.25;3.88;;;;;;;17.49;61.95;100762.28;679667;28;1117;-80
2023/07/19 00:54:30;;;;;;;5.80;3.97;;;;;;;17.58;61.73;100777.22;687533;28;1070;-80
2023/07/19 00:54:51;;;;;;;6.05;3.90;;;;;;;17.54;62.08;100774.56;693133;28;1446;-80
2023/07/19 00:55:12;;;;;;;6.82;4.20;;;;;;;17.45;62.10;100752.63;687657;28;976;-80
2023/07/19 00:55:33;;;;;;;8.18;4.32;;;;;;;17.49;62.31;100762.28;684702;28;1291;-80
2023/07/19 00:55:54;;;;;;;7.70;4.60;;;;;;;17.44;62.33;100754.34;687449;28;917;-80
2023/07/19 00:56:15;;;;;;;7.30;4.40;;;;;;;17.50;62.48;100764.91;682437;29;1265;-80
2023/07/19 00:56:36;;;;;;;7.50;4.50;;;;;;;17.43;62.47;100746.44;682283;28;1096;-81
2023/07/19 00:56:58;;;;;;;7.78;4.50;;;;;;;17.50;62.45;100758.75;679864;29;879;-80
2023/07/19 00:57:19;;;;;;;7.07;4.50;;;;;;;17.47;62.54;100759.66;684922;28;1378;-80
2023/07/19 00:57:39;;;;;;;7.10;4.50;;;;;;;17.54;62.60;100769.28;684912;28;1091;-80
2023/07/19 00:58:00;;;;;;;7.80;4.60;;;;;;;17.52;62.58;100764.91;684788;28;1144;-80
2023/07/19 00:58:23;;;;;;;8.00;4.68;;;;;;;17.51;62.81;100765.78;684952;28;1298;-80
2023/07/19 00:58:44;;;;;;;8.90;4.80;;;;;;;17.45;62.53;100750.84;684950;28;925;-80
2023/07/19 00:59:06;;;;;;;7.82;4.80;;;;;;;17.45;62.41;100752.63;682444;29;1103;-80
2023/07/19 00:59:27;;;;;;;7.57;4.55;;;;;;;17.52;62.64;100771.06;682813;28;1219;-80
2023/07/19 00:59:48;;;;;;;6.72;4.35;;;;;;;17.42;62.60;100753.50;682518;28;947;-80
2023/07/19 01:00:09;;;;;;;7.10;4.25;;;;;;;17.50;62.49;100771.94;682402;28;1012;-80
2023/07/19 01:00:31;;;;;;;9.55;4.70;;;;;;;17.49;62.42;100759.63;679845;29;1082;-80
2023/07/19 01:00:52;;;;;;;8.55;4.47;;;;;;;17.42;62.58;100760.50;685088;28;1122;-80
2023/07/19 01:01:13;;;;;;;8.10;4.43;;;;;;;17.41;62.50;100757.00;687756;28;1185;-80
2023/07/19 01:01:35;;;;;;;6.50;4.18;;;;;;;17.44;62.47;100756.13;687597;28;1394;-80
2023/07/19 01:01:55;;;;;;;7.00;4.30;;;;;;;17.39;62.42;100750.84;682735;28;1190;-80
2023/07/19 01:02:16;;;;;;;7.35;4.55;;;;;;;17.42;62.44;100752.59;684980;28;1091;-80
2023/07/19 01:02:37;;;;;;;6.50;4.40;;;;;;;17.48;62.37;100764.03;687659;28;1265;-80
2023/07/19 01:02:59;;;;;;;6.70;4.50;;;;;;;17.40;62.48;100753.47;685029;28;1263;-80
2023/07/19 01:03:20;;;;;;;8.70;4.68;;;;;;;17.49;62.43;100759.63;682381;29;1103;-80
2023/07/19 01:03:41;;;;;;;9.57;4.82;;;;;;;17.40;62.32;100756.13;687794;28;1062;-80
2023/07/19 01:04:01;;;;;;;9.00;4.82;;;;;;;17.42;62.44;100755.22;682463;29;1153;-80
2023/07/19 01:04:27;;;;;;;7.40;4.60;;;;;;;17.39;62.44;100746.44;685007;28;973;-80
2023/07/19 01:04:47;;;;;;;5.75;4.13;;;;;;;17.45;62.42;100758.75;689637;28;1386;-80
2023/07/19 01:05:08;;;;;;;5.85;4.20;;;;;;;17.38;62.28;100752.63;687207;28;1068;-80
2023/07/19 01:05:29;;;;;;;6.30;4.40;;;;;;;17.37;62.39;100750.84;684964;28;1146;-80
2023/07/19 01:05:50;;;;;;;7.17;4.57;;;;;;;17.44;62.22;100762.28;684552;28;865;-79
2023/07/19 01:06:11;;;;;;;8.55;4.40;;;;;;;17.42;62.52;100764.03;679782;29;1138;-80
2023/07/19 01:06:32;;;;;;;7.60;3.90;;;;;;;17.41;62.53;100762.28;687516;28;1317;-80
2023/07/19 01:06:53;;;;;;;8.35;4.30;;;;;;;17.31;62.43;100744.69;687690;28;1383;-80
2023/07/19 01:07:14;;;;;;;7.17;4.50;;;;;;;17.35;62.48;100757.00;682399;28;1022;-80
2023/07/19 01:07:35;;;;;;;7.97;4.90;;;;;;;17.33;62.66;100750.88;679740;29;1194;-81
2023/07/19 01:07:56;;;;;;;8.10;4.90;;;;;;;17.34;62.46;100755.25;679911;29;957;-80
2023/07/19 01:08:18;;;;;;;8.25;4.78;;;;;;;17.34;62.57;100760.53;679877;29;1074;-80
2023/07/19 01:08:39;;;;;;;6.35;4.20;;;;;;;17.29;62.54;100757.00;685045;28;1437;-80
2023/07/19 01:09:00;;;;;;;5.50;3.80;;;;;;;17.35;62.84;100764.91;682452;28;1152;-80
2023/07/19 01:09:24;;;;;;;6.35;4.22;;;;;;;17.34;62.85;100756.13;684486;28;1709;-80
2023/07/19 01:09:45;;;;;;;7.20;4.50;;;;;;;17.28;62.80;100749.97;687701;28;1268;-80
2023/07/19 01:10:06;;;;;;;8.77;4.55;;;;;;;17.32;62.96;100760.53;693006;28;1261;-80
2023/07/19 01:10:27;;;;;;;9.27;4.40;;;;;;;17.31;62.85;100752.59;685008;28;1167;-80
2023/07/19 01:10:49;;;;;;;9.90;4.35;;;;;;;17.26;62.89;100748.22;677146;29;1181;-80
2023/07/19 01:11:12;;;;;;;7.55;3.92;;;;;;;17.25;62.85;100746.47;687689;28;1258;-80
2023/07/19 01:11:33;;;;;;;6.82;3.67;;;;;;;17.18;62.78;100742.03;687764;28;1084;-80
2023/07/19 01:11:53;;;;;;;6.05;4.10;;;;;;;17.23;62.85;100748.19;685026;28;1216;-80
2023/07/19 01:12:14;;;;;;;6.27;4.30;;;;;;;17.13;62.86;100736.75;684970;28;1143;-80
2023/07/19 01:12:35;;;;;;;6.70;4.40;;;;;;;17.18;62.96;100743.78;682531;28;1397;-80
2023/07/19 01:13:06;;;;;;;8.30;3.97;;;;;;;17.23;63.03;100756.13;685183;28;724;-80
2023/07/19 01:13:27;;;;;;;8.13;3.70;;;;;;;17.19;63.15;100746.44;688513;28;1011;-80
2023/07/19 01:13:55;;;;;;;6.30;3.70;;;;;;;17.11;63.17;100733.22;690304;28;1233;-80
2023/07/19 01:14:15;;;;;;;5.90;4.28;;;;;;;17.17;63.24;100747.31;690396;28;1179;-80
2023/07/19 01:14:37;;;;;;;6.00;4.25;;;;;;;17.13;63.55;100736.75;684978;28;1093;-80
2023/07/19 01:14:59;;;;;;;6.40;4.40;;;;;;;17.11;63.42;100738.50;687810;28;1360;-80
2023/07/19 01:15:19;;;;;;;6.38;4.10;;;;;;;17.13;63.51;100741.16;693114;28;1274;-79
2023/07/19 01:15:40;;;;;;;6.13;4.05;;;;;;;17.19;63.47;100754.34;689752;28;940;-80
2023/07/19 01:16:01;;;;;;;5.40;3.90;;;;;;;17.11;63.41;100748.19;687589;28;1215;-80
2023/07/19 01:16:22;;;;;;;6.20;4.30;;;;;;;17.12;63.46;100747.31;685190;28;1106;-81
2023/07/19 01:16:43;;;;;;;6.25;4.38;;;;;;;17.05;63.38;100735.00;687351;28;1700;-80
2023/07/19 01:17:04;;;;;;;6.53;4.57;;;;;;;17.08;63.59;100741.16;687717;28;1435;-80
2023/07/19 01:17:24;;;;;;;6.47;4.50;;;;;;;17.10;63.47;100752.56;684223;28;1368;-80
2023/07/19 01:17:45;;;;;;;6.70;4.50;;;;;;;17.03;63.61;100739.41;685135;28;1087;-81
2023/07/19 01:18:19;;;;;;;8.15;4.53;;;;;;;16.96;63.65;100730.63;685125;28;1224;-80
2023/07/19 01:18:40;;;;;;;8.40;4.53;;;;;;;16.98;63.72;100737.63;686486;28;1179;-80
2023/07/19 01:19:00;;;;;;;7.00;4.50;;;;;;;17.02;63.92;100738.50;685095;28;1181;-80
2023/07/19 01:19:21;;;;;;;5.88;3.83;;;;;;;17.02;63.79;100737.63;684927;28;1148;-80
2023/07/19 01:19:44;;;;;;;5.50;3.88;;;;;;;16.96;64.14;100728.84;687845;28;965;-80
2023/07/19 01:20:08;;;;;;;5.80;4.20;;;;;;;17.01;63.64;100742.03;685044;28;1107;-80
2023/07/19 01:20:30;;;;;;;8.85;4.32;;;;;;;17.06;63.96;100750.81;682169;28;1161;-80
2023/07/19 01:20:51;;;;;;;10.03;4.40;;;;;;;17.01;63.84;100730.63;682377;29;1048;-80
2023/07/19 01:21:11;;;;;;;9.70;4.50;;;;;;;17.08;63.96;100745.56;682339;28;1202;-80
2023/07/19 01:21:32;;;;;;;8.80;4.40;;;;;;;17.02;64.00;100737.63;679613;28;1296;-80
2023/07/19 01:21:55;;;;;;;8.32;4.32;;;;;;;17.00;64.32;100735.00;682319;28;1216;-80
2023/07/19 01:22:16;;;;;;;7.55;4.10;;;;;;;17.08;63.98;100746.41;682348;29;1079;-80
2023/07/19 01:22:36;;;;;;;7.90;4.45;;;;;;;16.98;64.09;100729.72;684880;28;1200;-81
2023/07/19 01:22:58;;;;;;;7.68;4.60;;;;;;;17.06;64.17;100732.38;685257;28;1298;-80
2023/07/19 01:23:18;;;;;;;8.32;4.85;;;;;;;17.01;64.04;100730.63;682387;28;1409;-80
2023/07/19 01:23:40;;;;;;;8.90;4.63;;;;;;;17.08;64.09;100743.78;684759;28;1301;-80
2023/07/19 01:24:01;;;;;;;11.20;4.65;;;;;;;17.02;64.16;100735.00;682379;28;1154;-80
2023/07/19 01:24:22;;;;;;;10.85;4.53;;;;;;;17.06;63.98;100742.03;684920;28;1264;-80
2023/07/19 01:24:42;;;;;;;9.60;4.47;;;;;;;17.01;63.91;100735.88;688784;28;1303;-80
2023/07/19 01:25:03;;;;;;;7.40;4.60;;;;;;;17.05;64.03;100740.25;685623;28;1055;-80
2023/07/19 01:25:24;;;;;;;7.07;4.40;;;;;;;16.99;63.93;100727.97;685733;28;1099;-80
2023/07/19 01:25:55;;;;;;;6.50;4.25;;;;;;;16.97;63.83;100732.38;681461;28;1245;-80
2023/07/19 01:26:16;;;;;;;7.53;4.00;;;;;;;16.99;63.58;100735.88;682891;29;1148;-80
2023/07/19 01:26:37;;;;;;;7.57;3.80;;;;;;;16.97;63.79;100738.50;685370;28;1272;-80
2023/07/19 01:26:58;;;;;;;6.78;3.80;;;;;;;16.98;63.71;100740.25;688212;28;1368;-80
2023/07/19 01:27:19;;;;;;;6.07;3.60;;;;;;;16.93;63.75;100727.97;685804;28;1091;-80
2023/07/19 01:27:40;;;;;;;5.68;3.63;;;;;;;16.98;63.87;100747.31;682965;29;1169;-80
2023/07/19 01:28:01;;;;;;;5.72;3.50;;;;;;;16.84;63.98;100723.56;685710;28;1019;-80
2023/07/19 01:28:21;;;;;;;6.78;3.78;;;;;;;16.86;63.92;100721.81;688538;28;971;-80
2023/07/19 01:28:42;;;;;;;7.85;3.90;;;;;;;16.90;63.94;100734.09;688336;28;1107;-80
2023/07/19 01:29:03;;;;;;;7.40;3.92;;;;;;;16.89;64.14;100729.72;688251;28;972;-80
2023/07/19 01:29:24;;;;;;;6.47;4.00;;;;;;;16.82;64.17;100717.41;688743;28;1162;-80
2023/07/19 01:29:44;;;;;;;6.13;4.10;;;;;;;16.87;64.21;100723.56;680320;28;1124;-80
2023/07/19 01:30:06;;;;;;;6.60;4.22;;;;;;;16.88;64.47;100730.59;690930;28;1295;-80
2023/07/19 01:30:27;;;;;;;6.80;4.18;;;;;;;16.82;64.49;100715.66;688283;28;973;-80
2023/07/19 01:30:47;;;;;;;6.97;4.20;;;;;;;16.92;64.40;100737.63;685566;28;1271;-80
2023/07/19 01:31:10;;;;;;;6.40;4.10;;;;;;;16.90;64.54;100733.25;680291;29;1284;-80
2023/07/19 01:31:31;;;;;;;5.95;4.10;;;;;;;16.78;64.70;100718.28;686068;28;1530;-80
2023/07/19 01:31:51;;;;;;;5.53;3.90;;;;;;;16.80;64.85;100716.53;690866;28;1034;-80
2023/07/19 01:32:12;;;;;;;5.40;3.88;;;;;;;16.76;64.75;100714.75;693654;28;1035;-80
2023/07/19 01:32:33;;;;;;;5.55;3.90;;;;;;;16.78;64.71;100723.56;685485;28;1043;-80
2023/07/19 01:32:54;;;;;;;7.07;4.20;;;;;;;16.85;64.69;100736.72;685590;28;954;-80
2023/07/19 01:33:14;;;;;;;6.77;4.00;;;;;;;16.81;64.67;100728.81;688095;28;1902;-80
2023/07/19 01:33:35;;;;;;;7.07;3.95;;;;;;;16.76;64.49;100723.53;686929;28;1206;-80
2023/07/19 01:33:56;;;;;;;6.10;4.00;;;;;;;16.74;64.50;100721.78;688346;28;756;-80
2023/07/19 01:34:16;;;;;;;6.18;3.90;;;;;;;16.75;64.68;100728.81;680202;28;1480;-80
2023/07/19 01:34:37;;;;;;;5.27;3.73;;;;;;;16.71;64.61;100726.19;685575;28;1096;-80
2023/07/19 01:34:58;;;;;;;5.00;3.55;;;;;;;16.75;64.48;100737.59;688306;28;1028;-80
2023/07/19 01:35:19;;;;;;;5.80;4.03;;;;;;;16.72;64.55;100741.09;690912;28;1160;-80
2023/07/19 01:35:39;;;;;;;5.78;4.07;;;;;;;16.66;64.58;100730.56;682232;28;1406;-80
2023/07/19 01:36:00;;;;;;;6.00;4.10;;;;;;;16.64;64.47;100727.03;682988;29;1136;-80
2023/07/19 01:36:22;;;;;;;5.40;4.00;;;;;;;16.69;64.85;100734.94;688242;28;1254;-80
2023/07/19 01:36:43;;;;;;;6.70;4.32;;;;;;;16.65;64.96;100728.78;688168;28;1278;-80
2023/07/19 01:37:04;;;;;;;6.80;4.47;;;;;;;16.61;64.91;100723.53;685694;28;1117;-80
2023/07/19 01:37:27;;;;;;;7.07;4.30;;;;;;;16.57;65.18;100718.25;684584;28;1095;-80
2023/07/19 01:37:48;;;;;;;7.68;4.18;;;;;;;16.61;65.08;100726.16;682768;28;1236;-80
2023/07/19 01:38:09;;;;;;;9.40;3.90;;;;;;;16.67;65.08;100737.56;685303;28;1188;-80
2023/07/19 01:38:29;;;;;;;9.18;4.00;;;;;;;16.64;65.30;100732.31;688197;28;1055;-80
2023/07/19 01:38:50;;;;;;;7.85;3.78;;;;;;;16.62;65.19;100726.16;688170;28;1218;-80
2023/07/19 01:39:11;;;;;;;5.30;3.65;;;;;;;16.62;65.28;100718.25;687990;28;1480;-80
2023/07/19 01:39:32;;;;;;;5.73;3.80;;;;;;;16.66;65.41;100725.28;685366;28;1088;-80
2023/07/19 01:39:55;;;;;;;7.55;4.10;;;;;;;16.68;65.38;100741.09;688100;28;1084;-81
2023/07/19 01:40:16;;;;;;;9.02;4.22;;;;;;;16.58;65.33;100705.94;685485;28;1225;-80
2023/07/19 01:40:36;;;;;;;8.65;4.25;;;;;;;16.65;65.15;100728.78;687873;28;1071;-80
2023/07/19 01:40:58;;;;;;;5.90;4.20;;;;;;;16.61;65.40;100720.88;685598;28;1106;-80
2023/07/19 01:41:20;;;;;;;5.93;4.00;;;;;;;16.68;65.42;100731.47;682808;28;1049;-80
2023/07/19 01:41:41;;;;;;;6.95;4.00;;;;;;;16.63;65.23;100720.00;682795;29;920;-80